Oran, Iowa
Current Conditions -  °F | °C
As of 1:55 PM on Tuesday 21 Oct 2014 (Local Time) from KOLZ Reporting Station
Clear Clear  
Wind Chill: 57°   Ceiling: Unl
Heat Index: 57°   Visibility: 10mi
Dew Point: 39°   Wind: 10mph
Humidity: 51%   Direction: 110°ESE
Pressure: 30.17"   Gusts: NA
Location:  42.7°N, 92.07°W
Report Text: KOLZ 211855Z AUTO 11009KT 10SM CLR 14/04 A3017 RMK AO2
Loading
Personal Weather Stations






























Interactive Weather Map
Tropical Storm Tracking
New forecast layout! Learn more

10-Day Weather Forecast

Advertisements
Track Severe Weather on mobile